createdAt,value
2023-03-12T00:01:41.323Z,4.82
2023-03-12T00:04:42.795Z,4.43
2023-03-12T00:07:44.455Z,3.95
2023-03-12T00:10:45.959Z,4.00
2023-03-12T00:13:55.137Z,3.60
2023-03-12T00:16:56.643Z,3.90
2023-03-12T00:19:58.520Z,3.78
2023-03-12T00:22:59.993Z,4.55
2023-03-12T00:26:15.432Z,4.20
2023-03-12T00:29:17.017Z,3.90
2023-03-12T00:32:18.511Z,3.65
2023-03-12T00:35:20.018Z,4.00
2023-03-12T00:38:22.167Z,3.80
2023-03-12T00:41:25.329Z,3.83
2023-03-12T00:44:27.162Z,4.25
2023-03-12T00:47:28.651Z,4.07
2023-03-12T00:50:30.213Z,3.88
2023-03-12T00:53:31.778Z,4.63
2023-03-12T00:56:33.414Z,3.60
2023-03-12T00:59:34.973Z,3.58
2023-03-12T01:02:38.119Z,3.90
2023-03-12T01:05:40.794Z,3.50
2023-03-12T01:08:42.527Z,3.90
2023-03-12T01:11:44.050Z,5.35
2023-03-12T01:14:45.682Z,4.30
2023-03-12T01:17:47.205Z,4.78
2023-03-12T01:20:48.825Z,3.83
2023-03-12T01:23:51.010Z,4.47
2023-03-12T01:26:52.508Z,4.22
2023-03-12T01:29:54.178Z,3.97
2023-03-12T01:32:55.694Z,4.22
2023-03-12T01:35:57.291Z,4.40
2023-03-12T01:38:59.662Z,3.70
2023-03-12T01:42:01.908Z,3.95
2023-03-12T01:45:05.192Z,3.40
2023-03-12T01:48:08.014Z,3.80
2023-03-12T01:51:12.311Z,4.28
2023-03-12T01:54:19.262Z,4.15
2023-03-12T01:57:26.768Z,4.28
2023-03-12T02:00:28.364Z,4.03
2023-03-12T02:03:32.764Z,3.75
2023-03-12T02:06:43.803Z,4.20
2023-03-12T02:09:48.716Z,4.22
2023-03-12T02:12:51.056Z,5.07
2023-03-12T02:15:52.547Z,3.92
2023-03-12T02:18:55.779Z,4.18
2023-03-12T02:21:59.327Z,4.10
2023-03-12T02:25:19.220Z,3.97
2023-03-12T02:28:25.222Z,3.70
2023-03-12T02:31:33.206Z,3.70
2023-03-12T02:34:35.927Z,4.30
2023-03-12T02:37:47.848Z,4.20
2023-03-12T02:40:51.101Z,4.45
2023-03-12T02:44:04.438Z,4.10
2023-03-12T02:47:06.205Z,4.28
2023-03-12T02:50:08.496Z,4.65
2023-03-12T02:53:10.063Z,4.63
2023-03-12T02:56:11.618Z,4.95
2023-03-12T02:59:14.381Z,5.07
2023-03-12T03:02:17.926Z,4.80
2023-03-12T03:05:20.460Z,4.80
2023-03-12T03:08:22.264Z,4.38
2023-03-12T03:11:24.785Z,4.30
2023-03-12T03:14:29.031Z,4.50
2023-03-12T03:17:30.734Z,5.20
2023-03-12T03:20:32.625Z,4.38
2023-03-12T03:23:34.723Z,5.10
2023-03-12T03:26:36.314Z,5.00
2023-03-12T03:29:37.993Z,4.50
2023-03-12T03:32:39.647Z,4.43
2023-03-12T03:35:41.342Z,4.00
2023-03-12T03:38:46.997Z,4.43
2023-03-12T03:41:48.764Z,3.90
2023-03-12T03:44:53.086Z,4.72
2023-03-12T03:47:54.760Z,4.45
2023-03-12T03:51:01.903Z,4.20
2023-03-12T03:54:05.396Z,4.68
2023-03-12T03:57:07.150Z,4.90
2023-03-12T04:00:09.918Z,4.47
2023-03-12T04:03:15.455Z,4.40
2023-03-12T04:06:17.054Z,4.82
2023-03-12T04:09:18.734Z,4.68
2023-03-12T04:12:21.339Z,3.80
2023-03-12T04:15:22.903Z,4.22
2023-03-12T04:18:24.685Z,3.97
2023-03-12T04:21:26.478Z,3.35
2023-03-12T04:24:28.006Z,3.35
2023-03-12T04:27:29.708Z,3.70
2023-03-12T04:30:31.551Z,4.30
2023-03-12T04:33:36.621Z,3.97
2023-03-12T04:36:38.631Z,3.80
2023-03-12T04:39:41.773Z,3.80
2023-03-12T04:42:43.396Z,3.25
2023-03-12T04:45:45.216Z,3.70
2023-03-12T04:48:46.898Z,3.50
2023-03-12T04:51:49.632Z,3.00
2023-03-12T04:54:53.594Z,4.00
2023-03-12T04:57:55.394Z,3.35
2023-03-12T05:00:58.662Z,3.50
2023-03-12T05:04:00.448Z,3.17
2023-03-12T05:07:02.392Z,3.10
2023-03-12T05:10:04.673Z,3.55
2023-03-12T05:13:14.179Z,2.80
2023-03-12T05:16:16.712Z,3.13
2023-03-12T05:19:18.554Z,3.88
2023-03-12T05:22:20.127Z,3.30
2023-03-12T05:25:21.857Z,3.70
2023-03-12T05:28:28.494Z,3.78
2023-03-12T05:31:35.245Z,3.50
2023-03-12T05:34:38.573Z,4.18
2023-03-12T05:37:42.796Z,4.07
2023-03-12T05:40:53.605Z,3.50
2023-03-12T05:43:57.232Z,4.25
2023-03-12T05:46:59.223Z,3.50
2023-03-12T05:50:01.769Z,3.13
2023-03-12T05:53:04.429Z,3.70
2023-03-12T05:56:09.303Z,2.78
2023-03-12T05:59:10.989Z,2.30
2023-03-12T06:02:14.485Z,2.28
2023-03-12T06:05:16.118Z,1.73
2023-03-12T06:08:17.570Z,1.23
2023-03-12T06:11:19.079Z,1.00
2023-03-12T06:14:20.632Z,1.00
2023-03-12T06:17:22.878Z,0.90
2023-03-12T06:20:24.395Z,1.38
2023-03-12T06:23:25.871Z,0.45
2023-03-12T06:26:28.487Z,1.50
2023-03-12T06:29:29.991Z,0.70
2023-03-12T06:32:31.604Z,0.73
2023-03-12T06:35:34.300Z,1.52
2023-03-12T06:38:36.703Z,1.00
2023-03-12T06:41:38.218Z,0.98
2023-03-12T06:44:39.757Z,0.95
2023-03-12T06:47:41.258Z,1.38
2023-03-12T06:50:43.364Z,0.95
2023-03-12T06:53:45.451Z,1.00
2023-03-12T06:56:47.062Z,1.83
2023-03-12T06:59:50.571Z,1.17
2023-03-12T07:02:52.271Z,1.60
2023-03-12T07:05:56.268Z,1.42
2023-03-12T07:08:57.850Z,1.08
2023-03-12T07:11:59.334Z,0.98
2023-03-12T07:15:00.849Z,0.90
2023-03-12T07:18:07.472Z,1.13
2023-03-12T07:21:09.022Z,1.23
2023-03-12T07:24:10.674Z,0.88
2023-03-12T07:27:12.189Z,1.42
2023-03-12T07:30:13.908Z,1.05
2023-03-12T07:33:17.144Z,1.63
2023-03-12T07:36:18.815Z,1.70
2023-03-12T07:39:20.599Z,1.48
2023-03-12T07:42:22.945Z,1.30
2023-03-12T07:45:25.105Z,1.42
2023-03-12T07:48:26.837Z,1.65
2023-03-12T07:51:28.534Z,1.20
2023-03-12T07:54:30.709Z,1.42
2023-03-12T07:57:32.363Z,1.50
2023-03-12T08:00:33.941Z,1.45
2023-03-12T08:03:35.742Z,1.67
2023-03-12T08:06:38.733Z,1.58
2023-03-12T08:09:40.666Z,1.83
2023-03-12T08:12:42.152Z,1.80
2023-03-12T08:15:44.165Z,1.33
2023-03-12T08:18:45.668Z,1.38
2023-03-12T08:21:47.186Z,1.88
2023-03-12T08:24:48.936Z,1.83
2023-03-12T08:27:50.419Z,2.03
2023-03-12T08:30:53.967Z,1.67
2023-03-12T08:33:55.508Z,1.65
2023-03-12T08:36:57.090Z,1.63
2023-03-12T08:39:59.576Z,1.95
2023-03-12T08:43:01.208Z,2.10
2023-03-12T08:46:03.886Z,2.10
2023-03-12T08:49:05.444Z,1.90
2023-03-12T08:52:07.104Z,1.90
2023-03-12T08:55:10.427Z,1.33
2023-03-12T08:58:12.065Z,0.70
2023-03-12T09:01:14.059Z,0.80
2023-03-12T09:04:16.458Z,1.20
2023-03-12T09:07:22.247Z,0.70
2023-03-12T09:10:25.160Z,0.68
2023-03-12T09:13:40.546Z,0.82
2023-03-12T09:16:49.203Z,0.68
2023-03-12T09:19:50.745Z,0.77
2023-03-12T09:22:52.407Z,0.95
2023-03-12T09:25:54.845Z,0.95
2023-03-12T09:28:57.913Z,0.57
2023-03-12T09:31:59.513Z,0.80
2023-03-12T09:35:01.054Z,0.82
2023-03-12T09:38:04.021Z,0.90
2023-03-12T09:41:06.713Z,0.75
2023-03-12T09:44:29.416Z,0.63
2023-03-12T09:47:34.871Z,0.98
2023-03-12T09:50:43.587Z,1.65
2023-03-12T09:53:49.348Z,0.77
2023-03-12T09:56:54.962Z,1.23
2023-03-12T09:59:57.092Z,0.70
2023-03-12T10:03:12.675Z,0.60
2023-03-12T10:06:20.394Z,1.05
2023-03-12T10:09:46.685Z,1.23
2023-03-12T10:13:05.237Z,1.23
2023-03-12T10:16:18.558Z,0.85
2023-03-12T10:19:38.071Z,1.02
2023-03-12T10:23:06.837Z,0.65
2023-03-12T10:26:32.183Z,1.00
2023-03-12T10:29:38.961Z,0.77
2023-03-12T10:32:52.058Z,0.80
2023-03-12T10:35:54.912Z,0.98
2023-03-12T10:38:56.422Z,1.15
2023-03-12T10:42:00.378Z,1.30
2023-03-12T10:45:22.569Z,0.75
2023-03-12T10:48:25.942Z,2.53
2023-03-12T10:51:27.425Z,1.63
2023-03-12T10:54:40.577Z,1.10
2023-03-12T10:57:42.633Z,1.33
2023-03-12T11:00:56.735Z,2.80
2023-03-12T11:04:26.177Z,1.75
2023-03-12T11:07:34.097Z,1.67
2023-03-12T11:10:46.819Z,1.48
2023-03-12T11:14:07.290Z,1.10
2023-03-12T11:17:24.931Z,1.15
2023-03-12T11:20:29.162Z,1.10
2023-03-12T11:23:31.247Z,1.63
2023-03-12T11:26:51.695Z,2.03
2023-03-12T11:29:54.295Z,1.35
2023-03-12T11:32:57.954Z,1.45
2023-03-12T11:36:04.285Z,1.40
2023-03-12T11:39:20.662Z,1.83
2023-03-12T11:42:58.396Z,2.33
2023-03-12T11:46:17.851Z,2.38
2023-03-12T11:49:49.773Z,2.28
2023-03-12T11:53:18.038Z,2.38
2023-03-12T11:56:46.439Z,2.45
2023-03-12T12:00:09.118Z,2.13
2023-03-12T12:03:31.922Z,2.72
2023-03-12T12:06:40.947Z,2.45
2023-03-12T12:10:04.632Z,3.05
2023-03-12T12:13:28.140Z,3.03
2023-03-12T12:16:29.714Z,3.38
2023-03-12T12:20:00.223Z,3.33
2023-03-12T12:23:07.519Z,3.58
2023-03-12T12:26:13.040Z,3.00
2023-03-12T12:29:25.825Z,2.92
2023-03-12T12:32:48.995Z,3.55
2023-03-12T12:35:51.040Z,2.78
2023-03-12T12:39:18.493Z,3.05
2023-03-12T12:42:25.992Z,3.17
2023-03-12T12:45:30.893Z,2.67
2023-03-12T12:48:42.131Z,3.08
2023-03-12T12:51:49.066Z,2.65
2023-03-12T12:54:54.734Z,2.40
2023-03-12T12:58:11.649Z,2.47
2023-03-12T13:01:16.110Z,2.65
2023-03-12T13:04:26.891Z,2.28
2023-03-12T13:07:31.156Z,2.47
2023-03-12T13:10:32.712Z,2.40
2023-03-12T13:13:34.394Z,3.67
2023-03-12T13:16:40.033Z,2.70
2023-03-12T13:19:51.965Z,2.67
2023-03-12T13:23:14.014Z,2.78
2023-03-12T13:26:22.745Z,3.08
2023-03-12T13:29:31.168Z,2.50
2023-03-12T13:32:35.510Z,2.72
2023-03-12T13:35:39.583Z,3.05
2023-03-12T13:41:56.496Z,3.08
2023-03-12T13:45:21.445Z,2.67
2023-03-12T13:48:25.074Z,3.55
2023-03-12T13:51:27.056Z,2.90
2023-03-12T13:54:33.203Z,3.38
2023-03-12T13:57:41.130Z,3.75
2023-03-12T14:01:01.260Z,3.10
2023-03-12T14:04:08.918Z,3.15
2023-03-12T14:07:32.375Z,4.10
2023-03-12T14:11:00.174Z,3.50
2023-03-12T14:14:24.125Z,3.22
2023-03-12T14:17:28.220Z,3.08
2023-03-12T14:23:39.587Z,4.20
2023-03-12T14:26:41.333Z,3.20
2023-03-12T14:29:55.214Z,3.20
2023-03-12T14:33:01.326Z,3.35
2023-03-12T14:36:15.007Z,2.95
2023-03-12T14:39:28.736Z,3.37
2023-03-12T14:42:33.831Z,2.92
2023-03-12T14:45:40.033Z,3.20
2023-03-12T14:48:41.857Z,3.45
2023-03-12T14:51:43.694Z,4.07
2023-03-12T14:54:57.670Z,3.28
2023-03-12T14:58:18.618Z,2.75
2023-03-12T15:01:27.022Z,3.08
2023-03-12T15:04:29.957Z,3.15
2023-03-12T15:07:36.041Z,3.20
2023-03-12T15:10:39.165Z,2.88
2023-03-12T15:13:43.351Z,2.60
2023-03-12T15:16:45.566Z,3.70
2023-03-12T15:19:48.955Z,3.28
2023-03-12T15:22:52.232Z,3.22
2023-03-12T15:26:15.302Z,3.07
2023-03-12T15:29:26.510Z,2.90
2023-03-12T15:32:30.605Z,3.20
2023-03-12T15:35:32.677Z,3.90
2023-03-12T15:38:38.209Z,3.65
2023-03-12T15:41:45.378Z,3.70
2023-03-12T15:44:57.469Z,3.50
2023-03-12T15:47:59.059Z,3.50
2023-03-12T15:51:00.920Z,2.90
2023-03-12T15:54:14.540Z,3.47
2023-03-12T15:57:24.190Z,3.72
2023-03-12T16:00:29.514Z,3.15
2023-03-12T16:03:31.064Z,3.50
2023-03-12T16:06:32.733Z,4.18
2023-03-12T16:09:35.102Z,4.15
2023-03-12T16:12:38.111Z,3.70
2023-03-12T16:15:40.023Z,3.53
2023-03-12T16:18:42.847Z,3.38
2023-03-12T16:21:45.607Z,3.80
2023-03-12T16:24:47.104Z,3.85
2023-03-12T16:27:55.153Z,3.30
2023-03-12T16:30:56.748Z,4.10
2023-03-12T16:33:59.011Z,4.18
2023-03-12T16:37:01.057Z,3.88
2023-03-12T16:40:04.122Z,4.28
2023-03-12T16:43:07.593Z,3.80
2023-03-12T16:46:09.728Z,3.97
2023-03-12T16:49:14.581Z,4.53
2023-03-12T16:52:24.420Z,4.10
2023-03-12T16:55:28.636Z,3.55
2023-03-12T16:58:30.286Z,4.32
2023-03-12T17:01:32.117Z,5.28
2023-03-12T17:04:33.782Z,4.03
2023-03-12T17:07:35.727Z,4.00
2023-03-12T17:10:37.235Z,4.35
2023-03-12T17:13:38.723Z,4.13
2023-03-12T17:16:40.283Z,4.65
2023-03-12T17:19:41.766Z,4.55
2023-03-12T17:22:43.394Z,4.20
2023-03-12T17:25:45.540Z,4.35
2023-03-12T17:28:47.225Z,9.48
2023-03-12T17:31:48.875Z,5.05
2023-03-12T17:34:59.709Z,3.60
2023-03-12T17:38:01.200Z,5.07
2023-03-12T17:41:09.370Z,6.20
2023-03-12T17:44:15.901Z,4.78
2023-03-12T17:47:17.419Z,5.00
2023-03-12T17:50:19.273Z,4.80
2023-03-12T17:53:20.767Z,3.92
2023-03-12T17:56:22.254Z,4.43
2023-03-12T17:59:23.741Z,4.45
2023-03-12T18:02:25.351Z,4.38
2023-03-12T18:05:27.093Z,5.13
2023-03-12T18:08:28.904Z,7.40
2023-03-12T18:11:30.377Z,5.45
2023-03-12T18:14:32.208Z,4.88
2023-03-12T18:17:33.982Z,4.85
2023-03-12T18:20:39.469Z,4.45
2023-03-12T18:23:42.564Z,5.03
2023-03-12T18:26:45.241Z,4.47
2023-03-12T18:29:46.817Z,4.85
2023-03-12T18:32:48.354Z,4.97
2023-03-12T18:35:50.781Z,4.15
2023-03-12T18:38:53.128Z,4.78
2023-03-12T18:41:55.706Z,4.00
2023-03-12T18:44:57.140Z,4.97
2023-03-12T18:47:58.694Z,4.43
2023-03-12T18:51:00.258Z,4.70
2023-03-12T18:54:01.911Z,5.15
2023-03-12T18:57:03.441Z,4.82
2023-03-12T19:00:06.273Z,5.38
2023-03-12T19:03:09.239Z,4.95
2023-03-12T19:06:14.235Z,4.75
2023-03-12T19:09:15.728Z,4.10
2023-03-12T19:12:17.168Z,5.07
2023-03-12T19:15:19.566Z,4.22
2023-03-12T19:18:21.054Z,5.43
2023-03-12T19:21:23.104Z,5.40
2023-03-12T19:24:24.771Z,5.15
2023-03-12T19:27:28.114Z,5.07
2023-03-12T19:30:32.978Z,4.60
2023-03-12T19:33:34.844Z,5.32
2023-03-12T19:36:36.397Z,4.50
2023-03-12T19:39:37.829Z,3.95
2023-03-12T19:42:39.336Z,4.97
2023-03-12T19:45:40.862Z,4.38
2023-03-12T19:48:42.355Z,5.18
2023-03-12T19:51:43.947Z,4.35
2023-03-12T19:54:54.709Z,4.50
2023-03-12T19:58:05.090Z,4.03
2023-03-12T20:01:06.550Z,3.80
2023-03-12T20:04:08.874Z,4.63
2023-03-12T20:07:12.482Z,4.47
2023-03-12T20:10:14.190Z,4.57
2023-03-12T20:13:17.735Z,4.05
2023-03-12T20:16:20.066Z,5.85
2023-03-12T20:19:21.759Z,4.30
2023-03-12T20:22:25.597Z,4.72
2023-03-12T20:25:27.110Z,4.90
2023-03-12T20:28:28.880Z,3.92
2023-03-12T20:31:30.409Z,4.43
2023-03-12T20:34:31.886Z,3.65
2023-03-12T20:37:33.353Z,3.25
2023-03-12T20:40:35.312Z,3.53
2023-03-12T20:43:36.832Z,2.70
2023-03-12T20:46:38.304Z,3.47
2023-03-12T20:49:39.846Z,3.83
2023-03-12T20:52:43.148Z,2.85
2023-03-12T20:55:44.630Z,3.85
2023-03-12T20:58:46.111Z,3.70
2023-03-12T21:01:47.609Z,4.07
2023-03-12T21:04:49.521Z,3.35
2023-03-12T21:07:52.347Z,4.03
2023-03-12T21:10:54.426Z,4.07
2023-03-12T21:13:55.968Z,3.08
2023-03-12T21:16:57.827Z,3.13
2023-03-12T21:19:59.326Z,3.45
2023-03-12T21:23:01.020Z,3.60
2023-03-12T21:26:07.845Z,3.55
2023-03-12T21:29:10.491Z,3.60
2023-03-12T21:32:11.950Z,4.25
2023-03-12T21:35:13.391Z,3.33
2023-03-12T21:38:15.245Z,3.53
2023-03-12T21:41:18.184Z,3.25
2023-03-12T21:44:19.625Z,3.45
2023-03-12T21:47:21.071Z,4.05
2023-03-12T21:50:22.786Z,3.17
2023-03-12T21:53:24.480Z,3.30
2023-03-12T21:56:28.232Z,2.75
2023-03-12T21:59:30.231Z,3.00
2023-03-12T22:02:31.969Z,3.15
2023-03-12T22:05:33.425Z,3.05
2023-03-12T22:08:35.135Z,3.78
2023-03-12T22:11:36.919Z,2.85
2023-03-12T22:14:38.356Z,3.30
2023-03-12T22:17:39.885Z,3.58
2023-03-12T22:20:41.318Z,3.50
2023-03-12T22:23:42.907Z,3.63
2023-03-12T22:26:45.782Z,3.30
2023-03-12T22:29:47.301Z,3.15
2023-03-12T22:32:48.802Z,3.08
2023-03-12T22:35:50.368Z,3.00
2023-03-12T22:38:52.366Z,3.22
2023-03-12T22:41:53.833Z,3.67
2023-03-12T22:44:55.332Z,3.42
2023-03-12T22:47:56.785Z,3.63
2023-03-12T22:50:58.338Z,3.08
2023-03-12T22:54:00.272Z,2.60
2023-03-12T22:57:01.866Z,2.95
2023-03-12T23:00:24.251Z,2.67
2023-03-12T23:03:26.566Z,2.67
2023-03-12T23:06:29.993Z,2.25
2023-03-12T23:09:31.634Z,2.70
2023-03-12T23:12:33.113Z,2.70
2023-03-12T23:15:40.746Z,2.20
2023-03-12T23:18:44.461Z,2.63
2023-03-12T23:21:45.938Z,2.22
2023-03-12T23:24:47.375Z,2.40
2023-03-12T23:27:48.905Z,2.92
2023-03-12T23:31:01.645Z,2.22
2023-03-12T23:34:03.365Z,1.88
2023-03-12T23:37:05.115Z,2.40
2023-03-12T23:40:07.086Z,2.58
2023-03-12T23:43:08.573Z,2.22
2023-03-12T23:46:11.686Z,1.95
2023-03-12T23:49:13.215Z,2.10
2023-03-12T23:52:14.736Z,1.70
2023-03-12T23:55:17.373Z,2.08
2023-03-12T23:58:18.845Z,2.05
